EDT,Max TemperatureF,Mean TemperatureF,Min TemperatureF,Max Dew PointF,MeanDew PointF,Min DewpointF,Max Humidity, Mean Humidity, Min Humidity, Max Sea Level PressureIn, Mean Sea Level PressureIn, Min Sea Level PressureIn, Max VisibilityMiles, Mean VisibilityMiles, Min VisibilityMiles, Max Wind SpeedMPH, Mean Wind SpeedMPH, Max Gust SpeedMPH,PrecipitationIn, CloudCover, Events, WindDirDegrees
2012-4-1,21,18,14,19,11,-8,100,78,35,,,,1,0,0,21,13,,0.00,4,Fog-Snow,250
2012-4-2,15,12,8,16,6,-6,100,79,52,,,,0,0,0,58,30,69,0.03,2,Fog-Snow,347
2012-4-3,19,14,8,14,2,-17,86,60,27,,,,,,,77,59,86,0.00,3,Snow,322
2012-4-4,19,16,12,18,12,5,100,83,62,,,,0,0,0,63,49,74,0.03,5,Fog-Snow,299
2012-4-5,14,11,8,14,11,9,100,100,100,,,,0,0,0,68,58,79,0.26,,Fog-Snow,307
2012-4-6,15,10,6,10,2,-31,100,78,12,,,,0,0,0,54,46,67,0.05,4,Fog-Snow,312
2012-4-7,14,11,8,14,10,3,100,95,73,,,,0,0,0,52,40,66,0.04,6,Fog-Snow,326
2012-4-8,19,14,10,19,15,10,100,100,100,,,,0,0,0,64,44,74,0.42,,Fog-Snow,319
2012-4-9,21,20,19,21,20,19,100,100,100,,,,0,0,0,74,53,79,0.96,8,Fog-Snow,280
2012-4-10,23,21,19,23,21,19,100,100,100,,,,0,0,0,60,45,66,0.39,,Fog-Snow,275
2012-4-11,24,20,15,25,19,-9,100,94,30,,,,5,0,0,25,14,21,0.21,6,Fog-Snow,190
2012-4-12,21,19,17,21,18,1,100,95,49,,,,5,0,0,25,17,31,0.04,6,Fog-Snow,14
2012-4-13,26,22,17,19,3,-11,100,48,24,,,,10,3,0,71,36,76,0.00,2,Fog-Snow,323
2012-4-14,35,28,21,16,7,-4,68,41,27,,,,,,,61,49,69,0.00,4,Snow,298
2012-4-15,42,37,32,41,29,10,100,71,41,,,,5,1,0,52,36,58,0.00,6,Fog,273
2012-4-16,57,49,41,46,37,19,100,67,32,,,,20,4,0,50,29,60,0.00,4,Fog,247
2012-4-17,51,37,23,46,30,14,100,72,31,,,,0,0,0,63,52,70,0.00,5,Fog-Snow,293
2012-4-18,35,27,19,25,19,1,100,68,27,,,,0,0,0,44,27,51,0.00,4,Fog-Snow,308
2012-4-19,41,32,24,30,21,12,86,60,33,,,,,,,46,21,52,0.00,2,,254
2012-4-20,46,40,35,38,33,21,100,73,45,,,,0,0,0,47,34,52,0.00,5,Fog,234
2012-4-21,46,42,37,43,40,37,100,97,81,,,,0,0,0,45,28,55,0.91,5,Fog-Rain,222
2012-4-22,41,36,30,41,37,30,100,100,98,,,,0,0,0,36,18,34,0.69,8,Fog-Rain,192
2012-4-23,44,36,28,45,36,28,100,100,100,,,,0,0,0,64,49,94,1.69,,Fog-Rain,148
2012-4-24,30,24,19,30,23,19,100,100,100,,,,0,0,0,52,37,68,0.10,,Fog-Snow,188
2012-4-25,24,22,19,25,21,19,100,98,86,,,,0,0,0,38,30,44,0.03,8,Fog-Snow,241
2012-4-26,32,24,15,32,22,12,100,90,60,,,,20,2,0,53,27,59,0.23,4,Fog-Rain-Snow,266
2012-4-27,32,19,6,32,18,7,100,100,100,,,,0,0,0,78,50,85,0.55,,Fog-Rain-Snow,301
2012-4-28,14,8,3,12,7,3,100,91,67,,,,0,0,0,75,64,82,0.01,2,Fog-Snow,309
2012-4-29,14,11,8,7,4,0,85,72,57,,,,,,,72,57,83,0.00,2,Snow,308
2012-4-30,32,22,12,18,12,1,86,66,40,,,,,,,58,35,74,0.00,4,Snow,323